sensor_id;sensor_type;location;lat;lon;timestamp;pressure;altitude;pressure_sealevel;temperature;humidity
11413;BME280;5762;43.256;26.960;2023-04-24T00:01:35;100093.11;;;9.16;100.00
11413;BME280;5762;43.256;26.960;2023-04-24T00:04:05;100091.71;;;9.23;100.00
11413;BME280;5762;43.256;26.960;2023-04-24T00:06:34;100076.83;;;9.28;100.00
11413;BME280;5762;43.256;26.960;2023-04-24T00:09:03;100063.75;;;9.40;100.00
11413;BME280;5762;43.256;26.960;2023-04-24T00:11:32;100044.58;;;9.39;100.00
11413;BME280;5762;43.256;26.960;2023-04-24T00:14:01;100032.63;;;9.48;100.00
11413;BME280;5762;43.256;26.960;2023-04-24T00:16:30;100014.83;;;9.45;100.00
11413;BME280;5762;43.256;26.960;2023-04-24T00:18:59;100005.55;;;9.56;100.00
11413;BME280;5762;43.256;26.960;2023-04-24T00:21:28;99977.44;;;9.57;100.00
11413;BME280;5762;43.256;26.960;2023-04-24T00:23:57;99975.33;;;9.51;100.00
11413;BME280;5762;43.256;26.960;2023-04-24T00:26:25;99971.58;;;9.47;100.00
11413;BME280;5762;43.256;26.960;2023-04-24T00:28:54;99973.67;;;9.26;100.00
11413;BME280;5762;43.256;26.960;2023-04-24T00:31:23;99986.73;;;9.14;100.00
11413;BME280;5762;43.256;26.960;2023-04-24T00:33:52;99993.80;;;9.07;100.00
11413;BME280;5762;43.256;26.960;2023-04-24T00:36:21;99996.31;;;8.99;100.00
11413;BME280;5762;43.256;26.960;2023-04-24T00:38:50;99999.02;;;8.99;100.00
11413;BME280;5762;43.256;26.960;2023-04-24T00:41:19;100003.89;;;8.97;100.00
11413;BME280;5762;43.256;26.960;2023-04-24T00:43:47;99996.58;;;9.00;100.00
11413;BME280;5762;43.256;26.960;2023-04-24T00:46:16;99994.06;;;9.08;100.00
11413;BME280;5762;43.256;26.960;2023-04-24T00:48:45;99996.31;;;8.99;100.00
11413;BME280;5762;43.256;26.960;2023-04-24T00:51:15;100003.06;;;8.99;100.00
11413;BME280;5762;43.256;26.960;2023-04-24T00:53:43;100005.48;;;9.00;100.00
11413;BME280;5762;43.256;26.960;2023-04-24T00:56:12;100010.68;;;8.89;100.00
11413;BME280;5762;43.256;26.960;2023-04-24T00:58:42;100015.29;;;8.86;100.00
11413;BME280;5762;43.256;26.960;2023-04-24T01:01:11;100017.70;;;8.90;100.00
11413;BME280;5762;43.256;26.960;2023-04-24T01:03:39;100015.30;;;8.84;100.00
11413;BME280;5762;43.256;26.960;2023-04-24T01:06:08;100027.70;;;8.87;100.00
11413;BME280;5762;43.256;26.960;2023-04-24T01:08:37;100013.98;;;8.79;100.00
11413;BME280;5762;43.256;26.960;2023-04-24T01:11:07;100023.42;;;8.79;100.00
11413;BME280;5762;43.256;26.960;2023-04-24T01:13:42;100022.36;;;8.77;100.00
11413;BME280;5762;43.256;26.960;2023-04-24T01:16:11;100023.16;;;8.78;100.00
11413;BME280;5762;43.256;26.960;2023-04-24T01:18:40;100031.55;;;8.73;100.00
11413;BME280;5762;43.256;26.960;2023-04-24T01:21:09;100033.73;;;8.69;100.00
11413;BME280;5762;43.256;26.960;2023-04-24T01:23:39;100036.20;;;8.65;100.00
11413;BME280;5762;43.256;26.960;2023-04-24T01:26:07;100035.69;;;8.61;100.00
11413;BME280;5762;43.256;26.960;2023-04-24T01:28:35;100044.89;;;8.52;100.00
11413;BME280;5762;43.256;26.960;2023-04-24T01:31:04;100044.89;;;8.52;100.00
11413;BME280;5762;43.256;26.960;2023-04-24T01:33:33;100051.39;;;8.46;100.00
11413;BME280;5762;43.256;26.960;2023-04-24T01:36:01;100052.97;;;8.55;100.00
11413;BME280;5762;43.256;26.960;2023-04-24T01:38:31;100052.98;;;8.52;100.00
11413;BME280;5762;43.256;26.960;2023-04-24T01:41:00;100043.30;;;8.46;100.00
11413;BME280;5762;43.256;26.960;2023-04-24T01:43:29;100038.98;;;8.45;100.00
11413;BME280;5762;43.256;26.960;2023-04-24T01:45:58;100040.83;;;8.57;100.00
11413;BME280;5762;43.256;26.960;2023-04-24T01:48:27;100038.11;;;8.62;100.00
11413;BME280;5762;43.256;26.960;2023-04-24T01:50:57;100029.22;;;8.59;100.00
11413;BME280;5762;43.256;26.960;2023-04-24T01:53:25;100025.22;;;8.49;100.00
11413;BME280;5762;43.256;26.960;2023-04-24T01:55:54;100029.26;;;8.49;100.00
11413;BME280;5762;43.256;26.960;2023-04-24T01:58:23;100028.47;;;8.44;100.00
11413;BME280;5762;43.256;26.960;2023-04-24T02:00:53;100036.86;;;8.34;100.00
11413;BME280;5762;43.256;26.960;2023-04-24T02:03:22;100035.79;;;8.33;100.00
11413;BME280;5762;43.256;26.960;2023-04-24T02:05:51;100030.95;;;8.30;100.00
11413;BME280;5762;43.256;26.960;2023-04-24T02:08:21;100032.84;;;8.27;100.00
11413;BME280;5762;43.256;26.960;2023-04-24T02:10:50;100034.97;;;8.35;100.00
11413;BME280;5762;43.256;26.960;2023-04-24T02:13:19;100031.44;;;8.42;100.00
11413;BME280;5762;43.256;26.960;2023-04-24T02:15:52;100029.26;;;8.49;100.00
11413;BME280;5762;43.256;26.960;2023-04-24T02:18:17;100017.98;;;8.34;100.00
11413;BME280;5762;43.256;26.960;2023-04-24T02:20:45;100018.80;;;8.35;100.00
11413;BME280;5762;43.256;26.960;2023-04-24T02:23:13;100020.41;;;8.36;100.00
11413;BME280;5762;43.256;26.960;2023-04-24T02:25:42;100012.03;;;8.40;100.00
11413;BME280;5762;43.256;26.960;2023-04-24T02:28:10;100009.58;;;8.46;100.00
11413;BME280;5762;43.256;26.960;2023-04-24T02:30:39;100005.30;;;8.37;100.00
11413;BME280;5762;43.256;26.960;2023-04-24T02:33:08;100011.23;;;8.37;100.00
11413;BME280;5762;43.256;26.960;2023-04-24T02:35:37;100001.30;;;8.27;100.00
11413;BME280;5762;43.256;26.960;2023-04-24T02:38:05;100006.72;;;8.17;100.00
11413;BME280;5762;43.256;26.960;2023-04-24T02:40:34;100020.47;;;8.16;100.00
11413;BME280;5762;43.256;26.960;2023-04-24T02:43:03;100015.62;;;8.15;100.00
11413;BME280;5762;43.256;26.960;2023-04-24T02:45:32;100028.54;;;8.23;100.00
11413;BME280;5762;43.256;26.960;2023-04-24T02:48:00;100020.98;;;8.23;100.00
11413;BME280;5762;43.256;26.960;2023-04-24T02:50:29;100018.59;;;8.14;100.00
11413;BME280;5762;43.256;26.960;2023-04-24T02:52:58;100026.69;;;8.08;100.00
11413;BME280;5762;43.256;26.960;2023-04-24T02:55:27;100026.42;;;8.05;100.00
11413;BME280;5762;43.256;26.960;2023-04-24T02:57:56;100031.82;;;8.05;100.00
11413;BME280;5762;43.256;26.960;2023-04-24T03:00:28;100033.22;;;7.92;100.00
11413;BME280;5762;43.256;26.960;2023-04-24T03:02:56;100046.16;;;7.95;100.00
11413;BME280;5762;43.256;26.960;2023-04-24T03:05:24;100050.47;;;7.96;100.00
11413;BME280;5762;43.256;26.960;2023-04-24T03:07:53;100052.09;;;7.92;100.00
11413;BME280;5762;43.256;26.960;2023-04-24T03:10:21;100049.67;;;7.86;100.00
11413;BME280;5762;43.256;26.960;2023-04-24T03:12:51;100061.27;;;7.71;100.00
11413;BME280;5762;43.256;26.960;2023-04-24T03:15:20;100065.31;;;7.68;100.00
11413;BME280;5762;43.256;26.960;2023-04-24T03:17:48;100070.42;;;7.78;100.00
11413;BME280;5762;43.256;26.960;2023-04-24T03:20:17;100080.13;;;7.79;100.00
11413;BME280;5762;43.256;26.960;2023-04-24T03:22:46;100072.04;;;7.71;100.00
11413;BME280;5762;43.256;26.960;2023-04-24T03:25:14;100077.97;;;7.73;100.00
11413;BME280;5762;43.256;26.960;2023-04-24T03:27:42;100088.50;;;7.62;100.00
11413;BME280;5762;43.256;26.960;2023-04-24T03:30:11;100088.77;;;7.58;100.00
11413;BME280;5762;43.256;26.960;2023-04-24T03:32:39;100098.47;;;7.56;100.00
11413;BME280;5762;43.256;26.960;2023-04-24T03:35:11;100101.43;;;7.57;100.00
11413;BME280;5762;43.256;26.960;2023-04-24T03:37:36;100113.02;;;7.60;100.00
11413;BME280;5762;43.256;26.960;2023-04-24T03:40:05;100114.63;;;7.59;100.00
11413;BME280;5762;43.256;26.960;2023-04-24T03:42:34;100115.96;;;7.49;100.00
11413;BME280;5762;43.256;26.960;2023-04-24T03:45:03;100128.36;;;7.52;100.00
11413;BME280;5762;43.256;26.960;2023-04-24T03:47:32;100128.87;;;7.42;100.00
11413;BME280;5762;43.256;26.960;2023-04-24T03:50:00;100140.73;;;7.48;100.00
11413;BME280;5762;43.256;26.960;2023-04-24T03:52:29;100136.16;;;7.46;100.00
11413;BME280;5762;43.256;26.960;2023-04-24T03:54:58;100141.81;;;7.50;100.00
11413;BME280;5762;43.256;26.960;2023-04-24T03:57:27;100152.33;;;7.56;100.00
11413;BME280;5762;43.256;26.960;2023-04-24T03:59:55;100146.41;;;7.62;100.00
11413;BME280;5762;43.256;26.960;2023-04-24T04:02:24;100153.69;;;7.59;100.00
11413;BME280;5762;43.256;26.960;2023-04-24T04:04:53;100152.86;;;7.66;100.00
11413;BME280;5762;43.256;26.960;2023-04-24T04:07:22;100151.78;;;7.69;100.00
11413;BME280;5762;43.256;26.960;2023-04-24T04:09:51;100152.05;;;7.73;100.00
11413;BME280;5762;43.256;26.960;2023-04-24T04:12:19;100145.33;;;7.86;100.00
11413;BME280;5762;43.256;26.960;2023-04-24T04:14:48;100145.30;;;8.06;100.00
11413;BME280;5762;43.256;26.960;2023-04-24T04:17:19;100129.66;;;8.21;100.00
11413;BME280;5762;43.256;26.960;2023-04-24T04:19:48;100117.24;;;8.25;100.00
11413;BME280;5762;43.256;26.960;2023-04-24T04:22:17;100115.86;;;8.43;100.00
11413;BME280;5762;43.256;26.960;2023-04-24T04:24:46;100098.31;;;8.50;100.00
11413;BME280;5762;43.256;26.960;2023-04-24T04:27:15;100090.12;;;8.68;100.00
11413;BME280;5762;43.256;26.960;2023-04-24T04:29:43;100081.71;;;8.80;100.00
11413;BME280;5762;43.256;26.960;2023-04-24T04:32:12;100069.20;;;8.99;100.00
11413;BME280;5762;43.256;26.960;2023-04-24T04:34:40;100054.03;;;9.03;100.00
11413;BME280;5762;43.256;26.960;2023-04-24T04:37:09;100036.53;;;9.00;100.00
11413;BME280;5762;43.256;26.960;2023-04-24T04:39:38;100036.55;;;8.98;100.00
11413;BME280;5762;43.256;26.960;2023-04-24T04:42:06;100029.11;;;8.74;100.00
11413;BME280;5762;43.256;26.960;2023-04-24T04:44:35;100032.08;;;8.76;100.00
11413;BME280;5762;43.256;26.960;2023-04-24T04:47:04;100039.83;;;8.90;100.00
11413;BME280;5762;43.256;26.960;2023-04-24T04:49:33;100027.70;;;8.87;100.00
11413;BME280;5762;43.256;26.960;2023-04-24T04:52:02;100029.45;;;9.04;100.00
11413;BME280;5762;43.256;26.960;2023-04-24T04:54:32;100015.30;;;8.84;100.00
11413;BME280;5762;43.256;26.960;2023-04-24T04:57:00;100021.75;;;8.88;100.00
11413;BME280;5762;43.256;26.960;2023-04-24T04:59:28;100025.87;;;9.17;100.00
11413;BME280;5762;43.256;26.960;2023-04-24T05:01:57;100027.95;;;9.27;100.00
11413;BME280;5762;43.256;26.960;2023-04-24T05:07:15;100010.91;;;9.61;100.00
11413;BME280;5762;43.256;26.960;2023-04-24T05:09:43;99996.78;;;9.69;100.00
11413;BME280;5762;43.256;26.960;2023-04-24T05:12:12;99987.89;;;9.66;100.00
11413;BME280;5762;43.256;26.960;2023-04-24T05:14:41;99978.73;;;9.62;100.00
11413;BME280;5762;43.256;26.960;2023-04-24T05:17:10;99986.08;;;9.83;100.00
11413;BME280;5762;43.256;26.960;2023-04-24T05:19:39;99971.91;;;9.93;100.00
11413;BME280;5762;43.256;26.960;2023-04-24T05:22:08;99964.72;;;10.05;100.00
11413;BME280;5762;43.256;26.960;2023-04-24T05:24:36;99954.08;;;9.92;100.00
11413;BME280;5762;43.256;26.960;2023-04-24T05:27:05;99965.16;;;10.38;100.00
11413;BME280;5762;43.256;26.960;2023-04-24T05:29:34;99933.84;;;10.51;100.00
11413;BME280;5762;43.256;26.960;2023-04-24T05:32:03;99927.63;;;10.69;100.00
11413;BME280;5762;43.256;26.960;2023-04-24T05:34:31;99929.16;;;10.92;100.00
11413;BME280;5762;43.256;26.960;2023-04-24T05:37:01;99918.19;;;11.16;100.00
11413;BME280;5762;43.256;26.960;2023-04-24T05:39:30;99898.97;;;11.15;100.00
11413;BME280;5762;43.256;26.960;2023-04-24T05:41:59;99885.72;;;11.29;100.00
11413;BME280;5762;43.256;26.960;2023-04-24T05:44:28;99866.80;;;11.82;100.00
11413;BME280;5762;43.256;26.960;2023-04-24T05:46:56;99832.30;;;11.85;100.00
11413;BME280;5762;43.256;26.960;2023-04-24T05:49:25;99821.94;;;12.00;100.00
11413;BME280;5762;43.256;26.960;2023-04-24T05:51:54;99796.44;;;12.35;100.00
11413;BME280;5762;43.256;26.960;2023-04-24T05:54:22;99770.23;;;12.41;100.00
11413;BME280;5762;43.256;26.960;2023-04-24T05:56:50;99772.91;;;12.64;100.00
11413;BME280;5762;43.256;26.960;2023-04-24T05:59:18;99769.45;;;12.50;100.00
11413;BME280;5762;43.256;26.960;2023-04-24T06:01:48;99777.66;;;12.58;100.00
11413;BME280;5762;43.256;26.960;2023-04-24T06:04:17;99795.76;;;12.83;100.00
11413;BME280;5762;43.256;26.960;2023-04-24T06:06:49;99798.06;;;13.09;100.00
11413;BME280;5762;43.256;26.960;2023-04-24T06:09:18;99775.78;;;13.29;100.00
11413;BME280;5762;43.256;26.960;2023-04-24T06:11:46;99769.02;;;13.18;100.00
11413;BME280;5762;43.256;26.960;2023-04-24T06:14:14;99749.53;;;13.45;100.00
11413;BME280;5762;43.256;26.960;2023-04-24T06:16:42;99754.16;;;13.53;100.00
11413;BME280;5762;43.256;26.960;2023-04-24T06:19:11;99763.64;;;13.72;100.00
11413;BME280;5762;43.256;26.960;2023-04-24T06:21:39;99768.77;;;13.74;100.00
11413;BME280;5762;43.256;26.960;2023-04-24T06:24:07;99735.72;;;14.04;100.00
11413;BME280;5762;43.256;26.960;2023-04-24T06:26:36;99710.21;;;14.34;100.00
11413;BME280;5762;43.256;26.960;2023-04-24T06:29:07;99675.73;;;14.56;100.00
11413;BME280;5762;43.256;26.960;2023-04-24T06:31:35;99653.14;;;14.79;100.00
11413;BME280;5762;43.256;26.960;2023-04-24T06:34:04;99613.33;;;15.01;100.00
11413;BME280;5762;43.256;26.960;2023-04-24T06:36:33;99582.06;;;15.13;100.00
11413;BME280;5762;43.256;26.960;2023-04-24T06:39:02;99567.31;;;15.14;100.00
11413;BME280;5762;43.256;26.960;2023-04-24T06:41:30;99557.44;;;15.42;100.00
11413;BME280;5762;43.256;26.960;2023-04-24T06:43:59;99544.86;;;15.50;100.00
11413;BME280;5762;43.256;26.960;2023-04-24T06:46:28;99516.98;;;15.71;100.00
11413;BME280;5762;43.256;26.960;2023-04-24T06:48:56;99504.83;;;15.75;100.00
11413;BME280;5762;43.256;26.960;2023-04-24T06:51:24;99491.54;;;15.80;100.00
11413;BME280;5762;43.256;26.960;2023-04-24T06:53:54;99473.25;;;15.86;100.00
11413;BME280;5762;43.256;26.960;2023-04-24T06:56:28;99465.73;;;16.07;100.00
11413;BME280;5762;43.256;26.960;2023-04-24T06:58:56;99467.33;;;16.02;100.00
11413;BME280;5762;43.256;26.960;2023-04-24T07:01:25;99452.74;;;16.35;100.00
11413;BME280;5762;43.256;26.960;2023-04-24T07:03:54;99448.64;;;16.29;100.00
11413;BME280;5762;43.256;26.960;2023-04-24T07:06:23;99443.41;;;16.42;100.00
11413;BME280;5762;43.256;26.960;2023-04-24T07:08:52;99445.33;;;16.48;100.00
11413;BME280;5762;43.256;26.960;2023-04-24T07:11:21;99444.38;;;16.74;100.00
11413;BME280;5762;43.256;26.960;2023-04-24T07:13:50;99442.19;;;16.86;100.00
11413;BME280;5762;43.256;26.960;2023-04-24T07:16:22;99434.80;;;17.08;100.00
11413;BME280;5762;43.256;26.960;2023-04-24T07:18:48;99433.58;;;17.27;100.00
11413;BME280;5762;43.256;26.960;2023-04-24T07:21:16;99427.19;;;17.45;100.00
11413;BME280;5762;43.256;26.960;2023-04-24T07:23:45;99426.10;;;17.56;100.00
11413;BME280;5762;43.256;26.960;2023-04-24T07:26:14;99428.98;;;17.69;100.00
11413;BME280;5762;43.256;26.960;2023-04-24T07:28:42;99427.36;;;17.90;100.00
11413;BME280;5762;43.256;26.960;2023-04-24T07:31:11;99424.02;;;18.06;100.00
11413;BME280;5762;43.256;26.960;2023-04-24T07:33:40;99417.05;;;18.34;100.00
11413;BME280;5762;43.256;26.960;2023-04-24T07:36:09;99417.52;;;18.20;100.00
11413;BME280;5762;43.256;26.960;2023-04-24T07:38:39;99419.54;;;18.23;100.00
11413;BME280;5762;43.256;26.960;2023-04-24T07:41:08;99412.80;;;18.36;100.00
11413;BME280;5762;43.256;26.960;2023-04-24T07:43:36;99406.95;;;18.48;100.00
11413;BME280;5762;43.256;26.960;2023-04-24T07:46:05;99413.51;;;18.68;100.00
11413;BME280;5762;43.256;26.960;2023-04-24T07:48:34;99419.42;;;18.45;100.00
11413;BME280;5762;43.256;26.960;2023-04-24T07:51:02;99410.86;;;18.56;100.00
11413;BME280;5762;43.256;26.960;2023-04-24T07:53:31;99416.88;;;18.71;100.00
11413;BME280;5762;43.256;26.960;2023-04-24T07:55:59;99413.06;;;18.86;100.00
11413;BME280;5762;43.256;26.960;2023-04-24T07:58:28;99415.88;;;18.60;100.00
11413;BME280;5762;43.256;26.960;2023-04-24T08:00:58;99413.34;;;18.81;100.00
11413;BME280;5762;43.256;26.960;2023-04-24T08:03:26;99407.66;;;18.99;100.00
11413;BME280;5762;43.256;26.960;2023-04-24T08:05:54;99406.35;;;19.02;100.00
11413;BME280;5762;43.256;26.960;2023-04-24T08:08:23;99405.34;;;18.82;100.00
11413;BME280;5762;43.256;26.960;2023-04-24T08:10:51;99406.34;;;18.83;100.00
11413;BME280;5762;43.256;26.960;2023-04-24T08:13:20;99400.80;;;18.99;100.00
11413;BME280;5762;43.256;26.960;2023-04-24T08:15:55;99414.36;;;18.92;100.00
11413;BME280;5762;43.256;26.960;2023-04-24T08:18:24;99405.95;;;19.14;100.00
11413;BME280;5762;43.256;26.960;2023-04-24T08:20:53;99403.69;;;19.38;100.00
11413;BME280;5762;43.256;26.960;2023-04-24T08:23:22;99402.18;;;19.31;100.00
11413;BME280;5762;43.256;26.960;2023-04-24T08:25:51;99385.63;;;19.37;100.00
11413;BME280;5762;43.256;26.960;2023-04-24T08:28:20;99389.83;;;19.31;100.00
11413;BME280;5762;43.256;26.960;2023-04-24T08:30:48;99381.69;;;19.25;100.00
11413;BME280;5762;43.256;26.960;2023-04-24T08:33:17;99393.76;;;19.11;100.00
11413;BME280;5762;43.256;26.960;2023-04-24T08:35:46;99389.46;;;18.71;100.00
11413;BME280;5762;43.256;26.960;2023-04-24T08:38:20;99388.73;;;19.03;100.00
11413;BME280;5762;43.256;26.960;2023-04-24T08:40:53;99378.38;;;19.16;100.00
11413;BME280;5762;43.256;26.960;2023-04-24T08:43:18;99378.77;;;19.37;100.00
11413;BME280;5762;43.256;26.960;2023-04-24T08:45:48;99375.47;;;19.28;100.00
11413;BME280;5762;43.256;26.960;2023-04-24T08:48:17;99379.34;;;19.37;100.00
11413;BME280;5762;43.256;26.960;2023-04-24T08:50:48;99371.28;;;19.25;100.00
11413;BME280;5762;43.256;26.960;2023-04-24T08:53:16;99370.88;;;19.13;100.00
11413;BME280;5762;43.256;26.960;2023-04-24T08:55:46;99367.69;;;19.21;100.00
11413;BME280;5762;43.256;26.960;2023-04-24T08:58:16;99369.47;;;19.32;100.00
11413;BME280;5762;43.256;26.960;2023-04-24T09:00:45;99374.89;;;19.29;100.00
11413;BME280;5762;43.256;26.960;2023-04-24T09:03:16;99365.64;;;19.60;100.00
11413;BME280;5762;43.256;26.960;2023-04-24T09:05:47;99362.49;;;19.97;100.00
11413;BME280;5762;43.256;26.960;2023-04-24T09:08:20;99363.97;;;19.91;100.00
11413;BME280;5762;43.256;26.960;2023-04-24T09:10:49;99358.64;;;20.02;100.00
11413;BME280;5762;43.256;26.960;2023-04-24T09:13:18;99358.74;;;19.69;100.00
11413;BME280;5762;43.256;26.960;2023-04-24T09:15:47;99366.61;;;19.97;100.00
11413;BME280;5762;43.256;26.960;2023-04-24T09:18:16;99350.42;;;20.19;100.00
11413;BME280;5762;43.256;26.960;2023-04-24T09:20:58;99357.81;;;20.15;100.00
11413;BME280;5762;43.256;26.960;2023-04-24T09:23:28;99353.44;;;20.10;100.00
11413;BME280;5762;43.256;26.960;2023-04-24T09:25:56;99346.69;;;20.47;100.00
11413;BME280;5762;43.256;26.960;2023-04-24T09:28:38;99348.78;;;20.27;100.00
11413;BME280;5762;43.256;26.960;2023-04-24T09:31:11;99343.81;;;20.23;100.00
11413;BME280;5762;43.256;26.960;2023-04-24T09:33:39;99347.46;;;20.18;100.00
11413;BME280;5762;43.256;26.960;2023-04-24T09:36:07;99353.67;;;19.98;100.00
11413;BME280;5762;43.256;26.960;2023-04-24T09:38:37;99344.39;;;20.23;100.00
11413;BME280;5762;43.256;26.960;2023-04-24T09:41:07;99336.06;;;20.46;100.00
11413;BME280;5762;43.256;26.960;2023-04-24T09:43:36;99338.37;;;20.14;100.00
11413;BME280;5762;43.256;26.960;2023-04-24T09:46:06;99338.75;;;20.12;100.00
11413;BME280;5762;43.256;26.960;2023-04-24T09:48:36;99331.81;;;20.22;100.00
11413;BME280;5762;43.256;26.960;2023-04-24T09:51:05;99329.13;;;20.38;100.00
11413;BME280;5762;43.256;26.960;2023-04-24T09:53:36;99328.69;;;20.36;100.00
11413;BME280;5762;43.256;26.960;2023-04-24T09:56:09;99326.64;;;20.43;100.00
11413;BME280;5762;43.256;26.960;2023-04-24T09:58:38;99321.53;;;20.45;100.00
11413;BME280;5762;43.256;26.960;2023-04-24T10:01:07;99314.68;;;20.32;100.00
11413;BME280;5762;43.256;26.960;2023-04-24T10:03:35;99314.17;;;20.69;100.00
11413;BME280;5762;43.256;26.960;2023-04-24T10:06:04;99315.34;;;20.68;100.00
11413;BME280;5762;43.256;26.960;2023-04-24T10:08:36;99317.30;;;20.68;100.00
11413;BME280;5762;43.256;26.960;2023-04-24T10:11:05;99309.00;;;20.64;100.00
11413;BME280;5762;43.256;26.960;2023-04-24T10:13:34;99302.84;;;20.58;100.00
11413;BME280;5762;43.256;26.960;2023-04-24T10:16:03;99307.22;;;20.79;100.00
11413;BME280;5762;43.256;26.960;2023-04-24T10:18:32;99307.37;;;20.77;100.00
11413;BME280;5762;43.256;26.960;2023-04-24T10:21:01;99306.97;;;20.74;100.00
11413;BME280;5762;43.256;26.960;2023-04-24T10:23:29;99296.00;;;20.78;100.00
11413;BME280;5762;43.256;26.960;2023-04-24T10:25:58;99305.28;;;21.03;100.00
11413;BME280;5762;43.256;26.960;2023-04-24T10:28:28;99301.53;;;21.02;99.78
11413;BME280;5762;43.256;26.960;2023-04-24T10:30:58;99297.47;;;20.89;100.00
11413;BME280;5762;43.256;26.960;2023-04-24T10:33:28;99305.77;;;21.16;93.86
11413;BME280;5762;43.256;26.960;2023-04-24T10:35:57;99302.44;;;21.17;98.02
11413;BME280;5762;43.256;26.960;2023-04-24T10:38:26;99297.34;;;21.19;92.70
11413;BME280;5762;43.256;26.960;2023-04-24T10:41:09;99297.41;;;21.22;90.28
11413;BME280;5762;43.256;26.960;2023-04-24T10:43:39;99297.75;;;21.37;90.08
11413;BME280;5762;43.256;26.960;2023-04-24T10:46:08;99293.28;;;21.02;84.42
11413;BME280;5762;43.256;26.960;2023-04-24T10:48:41;99293.56;;;21.10;91.83
11413;BME280;5762;43.256;26.960;2023-04-24T10:51:10;99289.76;;;20.85;90.45
11413;BME280;5762;43.256;26.960;2023-04-24T10:53:36;99293.22;;;20.74;84.72
11413;BME280;5762;43.256;26.960;2023-04-24T10:56:06;99290.47;;;20.58;84.42
11413;BME280;5762;43.256;26.960;2023-04-24T10:58:36;99284.30;;;20.51;82.48
11413;BME280;5762;43.256;26.960;2023-04-24T11:01:05;99290.59;;;20.52;95.33
11413;BME280;5762;43.256;26.960;2023-04-24T11:03:34;99289.38;;;20.86;93.96
11413;BME280;5762;43.256;26.960;2023-04-24T11:06:04;99288.67;;;21.13;100.00
11413;BME280;5762;43.256;26.960;2023-04-24T11:08:37;99288.66;;;21.33;98.96
11413;BME280;5762;43.256;26.960;2023-04-24T11:11:03;99281.80;;;21.17;95.91
11413;BME280;5762;43.256;26.960;2023-04-24T11:16:28;99280.69;;;21.21;92.80
11413;BME280;5762;43.256;26.960;2023-04-24T11:19:05;99274.70;;;20.92;96.07
11413;BME280;5762;43.256;26.960;2023-04-24T11:21:36;99274.70;;;21.32;98.83
11413;BME280;5762;43.256;26.960;2023-04-24T11:24:21;99271.63;;;21.72;85.56
11413;BME280;5762;43.256;26.960;2023-04-24T11:26:31;99279.48;;;21.70;79.12
11413;BME280;5762;43.256;26.960;2023-04-24T11:29:07;99273.81;;;21.49;77.44
11413;BME280;5762;43.256;26.960;2023-04-24T11:31:39;99271.55;;;21.10;86.47
11413;BME280;5762;43.256;26.960;2023-04-24T11:34:08;99270.20;;;21.14;88.39
11413;BME280;5762;43.256;26.960;2023-04-24T11:36:37;99266.03;;;20.90;95.41
11413;BME280;5762;43.256;26.960;2023-04-24T11:39:06;99263.47;;;20.50;98.39
11413;BME280;5762;43.256;26.960;2023-04-24T11:41:35;99264.05;;;20.66;100.00
11413;BME280;5762;43.256;26.960;2023-04-24T11:44:03;99266.84;;;20.53;100.00
11413;BME280;5762;43.256;26.960;2023-04-24T11:46:32;99261.05;;;20.45;100.00
11413;BME280;5762;43.256;26.960;2023-04-24T11:49:01;99259.67;;;20.42;100.00
11413;BME280;5762;43.256;26.960;2023-04-24T11:51:30;99264.08;;;20.20;100.00
11413;BME280;5762;43.256;26.960;2023-04-24T11:56:54;99260.50;;;19.86;100.00
11413;BME280;5762;43.256;26.960;2023-04-24T11:59:23;99264.20;;;19.84;100.00
11413;BME280;5762;43.256;26.960;2023-04-24T12:01:51;99264.02;;;19.69;100.00
11413;BME280;5762;43.256;26.960;2023-04-24T12:04:21;99266.66;;;19.62;100.00
11413;BME280;5762;43.256;26.960;2023-04-24T12:07:00;99284.19;;;19.45;100.00
11413;BME280;5762;43.256;26.960;2023-04-24T12:09:29;99300.27;;;18.97;100.00
11413;BME280;5762;43.256;26.960;2023-04-24T12:11:58;99275.72;;;18.14;100.00
11413;BME280;5762;43.256;26.960;2023-04-24T12:14:27;99282.78;;;17.70;100.00
11413;BME280;5762;43.256;26.960;2023-04-24T12:16:57;99298.98;;;17.28;100.00
11413;BME280;5762;43.256;26.960;2023-04-24T12:19:26;99304.80;;;17.11;100.00
11413;BME280;5762;43.256;26.960;2023-04-24T12:22:00;99352.14;;;16.77;100.00
11413;BME280;5762;43.256;26.960;2023-04-24T12:24:28;99383.03;;;16.19;100.00
11413;BME280;5762;43.256;26.960;2023-04-24T12:26:57;99480.17;;;15.84;100.00
11413;BME280;5762;43.256;26.960;2023-04-24T12:29:27;99569.25;;;15.40;100.00
11413;BME280;5762;43.256;26.960;2023-04-24T12:31:56;99555.67;;;15.53;100.00
11413;BME280;5762;43.256;26.960;2023-04-24T12:34:25;99499.58;;;15.37;100.00
11413;BME280;5762;43.256;26.960;2023-04-24T12:36:53;99457.92;;;15.49;100.00
11413;BME280;5762;43.256;26.960;2023-04-24T12:39:21;99470.86;;;15.46;100.00
11413;BME280;5762;43.256;26.960;2023-04-24T12:41:57;99473.33;;;15.59;100.00
11413;BME280;5762;43.256;26.960;2023-04-24T12:44:30;99484.44;;;15.60;100.00
11413;BME280;5762;43.256;26.960;2023-04-24T12:47:00;99511.13;;;15.55;100.00
11413;BME280;5762;43.256;26.960;2023-04-24T12:49:30;99518.45;;;15.69;100.00
11413;BME280;5762;43.256;26.960;2023-04-24T12:51:59;99525.33;;;15.87;100.00
11413;BME280;5762;43.256;26.960;2023-04-24T12:54:31;99578.16;;;16.28;100.00
11413;BME280;5762;43.256;26.960;2023-04-24T12:56:57;99568.61;;;16.83;100.00
11413;BME280;5762;43.256;26.960;2023-04-24T12:59:25;99573.32;;;17.50;100.00
11413;BME280;5762;43.256;26.960;2023-04-24T13:01:54;99531.05;;;17.91;100.00
11413;BME280;5762;43.256;26.960;2023-04-24T13:04:23;99415.72;;;18.02;100.00
11413;BME280;5762;43.256;26.960;2023-04-24T13:06:52;99366.80;;;18.36;100.00
11413;BME280;5762;43.256;26.960;2023-04-24T13:09:21;99337.91;;;18.67;100.00